createdAt,value
2018-03-25T00:01:10.484Z,18.80
2018-03-25T00:03:36.798Z,17.93
2018-03-25T00:06:03.286Z,19.37
2018-03-25T00:08:29.994Z,19.03
2018-03-25T00:10:57.015Z,19.03
2018-03-25T00:13:23.369Z,18.33
2018-03-25T00:15:49.577Z,19.50
2018-03-25T00:18:15.837Z,18.70
2018-03-25T00:20:42.186Z,18.83
2018-03-25T00:23:08.510Z,19.13
2018-03-25T00:25:34.950Z,18.53
2018-03-25T00:28:01.648Z,18.73
2018-03-25T00:30:27.894Z,18.03
2018-03-25T00:32:54.362Z,18.43
2018-03-25T00:35:20.647Z,18.60
2018-03-25T00:37:46.860Z,18.73
2018-03-25T00:40:13.090Z,18.87
2018-03-25T00:42:39.333Z,18.27
2018-03-25T00:45:06.114Z,18.33
2018-03-25T00:47:32.412Z,17.93
2018-03-25T00:49:59.800Z,19.60
2018-03-25T00:52:26.362Z,18.50
2018-03-25T00:54:53.158Z,18.10
2018-03-25T00:57:19.549Z,17.23
2018-03-25T00:59:45.815Z,17.77
2018-03-25T01:02:12.332Z,18.97
2018-03-25T01:04:38.579Z,17.97
2018-03-25T01:07:06.112Z,17.93
2018-03-25T01:09:34.097Z,19.63
2018-03-25T01:12:01.121Z,18.03
2018-03-25T01:14:28.288Z,17.97
2018-03-25T01:16:54.636Z,18.60
2018-03-25T01:19:21.917Z,18.80
2018-03-25T01:21:48.244Z,18.10
2018-03-25T01:24:14.550Z,17.90
2018-03-25T01:26:41.017Z,18.37
2018-03-25T01:29:08.720Z,18.27
2018-03-25T01:31:35.895Z,18.87
2018-03-25T01:34:05.094Z,17.97
2018-03-25T01:36:31.531Z,18.63
2018-03-25T01:38:57.827Z,18.07
2018-03-25T01:41:24.443Z,18.03
2018-03-25T01:43:51.392Z,18.97
2018-03-25T01:46:18.651Z,17.60
2018-03-25T01:48:45.953Z,18.10
2018-03-25T01:51:13.309Z,18.07
2018-03-25T01:53:40.482Z,18.40
2018-03-25T01:56:07.567Z,18.60
2018-03-25T01:58:34.101Z,18.30
2018-03-25T02:01:00.752Z,19.63
2018-03-25T02:03:29.450Z,18.10
2018-03-25T02:05:56.094Z,18.77
2018-03-25T02:08:22.676Z,18.90
2018-03-25T02:10:49.186Z,18.83
2018-03-25T02:13:15.661Z,18.60
2018-03-25T02:15:43.711Z,19.33
2018-03-25T02:18:12.153Z,18.57
2018-03-25T02:20:38.779Z,20.10
2018-03-25T02:23:05.226Z,19.53
2018-03-25T02:25:31.756Z,19.60
2018-03-25T02:27:58.461Z,19.47
2018-03-25T02:30:25.149Z,19.00
2018-03-25T02:32:51.750Z,18.70
2018-03-25T02:35:18.184Z,18.60
2018-03-25T02:37:44.434Z,19.57
2018-03-25T02:40:10.767Z,19.70
2018-03-25T02:42:36.970Z,19.07
2018-03-25T02:45:04.419Z,19.27
2018-03-25T02:47:30.698Z,19.90
2018-03-25T02:49:56.982Z,18.57
2018-03-25T02:52:24.109Z,20.20
2018-03-25T02:54:50.415Z,19.43
2018-03-25T02:57:18.818Z,18.37
2018-03-25T02:59:46.130Z,18.73
2018-03-25T03:02:12.539Z,19.17
2018-03-25T03:04:39.754Z,20.40
2018-03-25T03:07:07.354Z,19.90
2018-03-25T03:09:33.602Z,19.50
2018-03-25T03:11:59.821Z,18.47
2018-03-25T03:14:26.850Z,19.70
2018-03-25T03:16:53.120Z,19.50
2018-03-25T03:19:19.377Z,18.73
2018-03-25T03:21:46.507Z,21.10
2018-03-25T03:24:14.696Z,20.43
2018-03-25T03:26:41.118Z,20.53
2018-03-25T03:29:07.395Z,19.97
2018-03-25T03:31:33.642Z,19.27
2018-03-25T03:33:59.956Z,19.27
2018-03-25T03:36:26.238Z,18.60
2018-03-25T03:38:52.502Z,19.37
2018-03-25T03:41:19.766Z,18.97
2018-03-25T03:43:46.813Z,18.80
2018-03-25T03:46:13.079Z,19.20
2018-03-25T03:48:39.303Z,19.80
2018-03-25T03:51:05.582Z,18.27
2018-03-25T03:53:32.629Z,19.27
2018-03-25T03:55:59.826Z,19.37
2018-03-25T03:58:26.131Z,20.50
2018-03-25T04:00:52.486Z,18.10
2018-03-25T04:03:18.882Z,19.40
2018-03-25T04:05:45.474Z,20.07
2018-03-25T04:08:14.467Z,18.77
2018-03-25T04:10:41.468Z,18.97
2018-03-25T04:13:07.778Z,19.27
2018-03-25T04:15:34.085Z,19.27
2018-03-25T04:18:00.298Z,18.40
2018-03-25T04:20:26.541Z,18.77
2018-03-25T04:22:53.536Z,20.30
2018-03-25T04:25:19.775Z,18.97
2018-03-25T04:27:45.986Z,19.57
2018-03-25T04:30:12.330Z,19.53
2018-03-25T04:32:38.580Z,17.90
2018-03-25T04:35:06.087Z,20.23
2018-03-25T04:37:32.373Z,19.27
2018-03-25T04:39:58.591Z,19.43
2018-03-25T04:42:24.857Z,19.33
2018-03-25T04:44:51.102Z,18.47
2018-03-25T04:47:18.123Z,18.67
2018-03-25T04:49:44.309Z,19.50
2018-03-25T04:52:10.695Z,18.87
2018-03-25T04:54:36.965Z,19.73
2018-03-25T04:57:03.266Z,19.00
2018-03-25T04:59:30.267Z,17.43
2018-03-25T05:01:56.499Z,19.87
2018-03-25T05:04:22.779Z,19.67
2018-03-25T05:06:49.022Z,19.23
2018-03-25T05:09:15.386Z,19.13
2018-03-25T05:11:42.479Z,19.20
2018-03-25T05:14:08.718Z,18.73
2018-03-25T05:16:34.932Z,20.20
2018-03-25T05:19:01.233Z,19.63
2018-03-25T05:21:28.962Z,20.10
2018-03-25T05:23:56.015Z,18.07
2018-03-25T05:26:22.616Z,18.20
2018-03-25T05:28:48.874Z,19.67
2018-03-25T05:31:15.206Z,18.77
2018-03-25T05:33:41.506Z,20.10
2018-03-25T05:36:07.777Z,19.07
2018-03-25T05:38:34.001Z,18.80
2018-03-25T05:41:00.194Z,19.53
2018-03-25T05:43:26.399Z,19.20
2018-03-25T05:45:54.553Z,18.70
2018-03-25T05:48:26.998Z,19.57
2018-03-25T05:50:53.548Z,19.20
2018-03-25T05:53:20.770Z,19.37
2018-03-25T05:55:46.985Z,18.97
2018-03-25T05:58:14.424Z,19.90
2018-03-25T06:00:41.530Z,18.53
2018-03-25T06:03:07.814Z,19.57
2018-03-25T06:05:34.058Z,19.43
2018-03-25T06:08:00.285Z,18.80
2018-03-25T06:10:26.633Z,19.53
2018-03-25T06:12:52.888Z,19.70
2018-03-25T06:15:19.885Z,19.83
2018-03-25T06:17:46.105Z,19.37
2018-03-25T06:20:12.346Z,19.40
2018-03-25T06:22:38.580Z,20.57
2018-03-25T06:25:04.803Z,19.20
2018-03-25T06:27:31.058Z,19.53
2018-03-25T06:29:57.430Z,18.97
2018-03-25T06:32:23.659Z,19.53
2018-03-25T06:34:50.058Z,19.87
2018-03-25T06:37:16.294Z,19.77
2018-03-25T06:39:43.267Z,20.40
2018-03-25T06:42:09.460Z,20.37
2018-03-25T06:44:35.679Z,19.87
2018-03-25T06:47:01.998Z,19.43
2018-03-25T06:49:28.302Z,20.20
2018-03-25T06:51:54.517Z,19.70
2018-03-25T06:54:20.788Z,19.83
2018-03-25T06:56:47.021Z,20.03
2018-03-25T06:59:14.002Z,19.00
2018-03-25T07:01:40.983Z,19.80
2018-03-25T07:04:07.267Z,19.87
2018-03-25T07:06:34.287Z,19.53
2018-03-25T07:09:01.258Z,17.27
2018-03-25T07:11:28.402Z,17.70
2018-03-25T07:13:55.363Z,17.97
2018-03-25T07:16:22.351Z,16.60
2018-03-25T07:18:48.542Z,16.97
2018-03-25T07:21:14.762Z,17.10
2018-03-25T07:23:41.739Z,17.80
2018-03-25T07:26:08.537Z,16.73
2018-03-25T07:28:37.142Z,17.40
2018-03-25T07:31:03.367Z,17.50
2018-03-25T07:33:29.569Z,18.23
2018-03-25T07:35:55.804Z,16.10
2018-03-25T07:38:23.598Z,16.43
2018-03-25T07:40:49.823Z,17.60
2018-03-25T07:43:16.070Z,16.13
2018-03-25T07:45:42.362Z,16.33
2018-03-25T07:48:08.623Z,16.20
2018-03-25T07:50:34.851Z,16.67
2018-03-25T07:53:01.095Z,16.17
2018-03-25T07:55:27.398Z,16.47
2018-03-25T07:57:53.601Z,16.03
2018-03-25T08:00:20.942Z,16.60
2018-03-25T08:02:47.228Z,16.23
2018-03-25T08:05:13.520Z,16.73
2018-03-25T08:07:39.771Z,16.60
2018-03-25T08:10:06.171Z,17.03
2018-03-25T08:12:32.418Z,16.07
2018-03-25T08:14:58.653Z,15.97
2018-03-25T08:17:24.910Z,15.50
2018-03-25T08:19:51.220Z,16.80
2018-03-25T08:22:17.491Z,16.23
2018-03-25T08:24:43.922Z,16.40
2018-03-25T08:27:10.315Z,17.13
2018-03-25T08:29:36.560Z,16.20
2018-03-25T08:32:02.822Z,16.80
2018-03-25T08:34:29.068Z,17.13
2018-03-25T08:36:55.399Z,20.50
2018-03-25T08:39:21.646Z,16.70
2018-03-25T08:41:48.250Z,16.97
2018-03-25T08:44:14.740Z,17.20
2018-03-25T08:46:41.008Z,17.60
2018-03-25T08:49:08.002Z,16.70
2018-03-25T08:51:34.236Z,16.77
2018-03-25T08:54:01.840Z,16.70
2018-03-25T08:56:28.847Z,16.27
2018-03-25T08:58:55.122Z,16.70
2018-03-25T09:01:21.545Z,16.57
2018-03-25T09:03:48.534Z,15.93
2018-03-25T09:06:14.814Z,16.33
2018-03-25T09:08:41.054Z,15.70
2018-03-25T09:11:08.036Z,16.97
2018-03-25T09:13:34.230Z,17.30
2018-03-25T09:16:01.243Z,17.43
2018-03-25T09:18:27.483Z,16.33
2018-03-25T09:20:53.700Z,16.73
2018-03-25T09:23:20.899Z,17.07
2018-03-25T09:25:47.077Z,17.50
2018-03-25T09:28:13.281Z,17.03
2018-03-25T09:30:39.502Z,16.97
2018-03-25T09:33:06.226Z,17.30
2018-03-25T09:35:32.608Z,18.17
2018-03-25T09:37:58.909Z,17.10
2018-03-25T09:40:25.187Z,17.33
2018-03-25T09:42:51.411Z,17.47
2018-03-25T09:45:18.433Z,17.23
2018-03-25T09:47:44.682Z,18.40
2018-03-25T09:50:10.889Z,17.23
2018-03-25T09:52:37.151Z,17.70
2018-03-25T09:55:04.156Z,17.00
2018-03-25T09:57:30.420Z,16.77
2018-03-25T09:59:57.406Z,17.00
2018-03-25T10:02:27.443Z,17.70
2018-03-25T10:04:53.700Z,17.80
2018-03-25T10:07:20.557Z,16.90
2018-03-25T10:09:47.705Z,18.37
2018-03-25T10:12:14.640Z,18.17
2018-03-25T10:14:40.870Z,17.93
2018-03-25T10:17:07.094Z,17.70
2018-03-25T10:19:34.095Z,18.30
2018-03-25T10:22:00.403Z,17.90
2018-03-25T10:24:27.713Z,16.67
2018-03-25T10:26:53.938Z,17.13
2018-03-25T10:29:20.178Z,17.43
2018-03-25T10:31:46.421Z,18.97
2018-03-25T10:34:12.651Z,17.37
2018-03-25T10:36:38.917Z,18.03
2018-03-25T10:39:05.177Z,17.83
2018-03-25T10:41:31.436Z,17.07
2018-03-25T10:43:58.422Z,16.03
2018-03-25T10:46:24.658Z,15.93
2018-03-25T10:48:51.003Z,16.23
2018-03-25T10:51:17.982Z,14.93
2018-03-25T10:53:44.234Z,15.53
2018-03-25T10:56:10.582Z,15.30
2018-03-25T10:58:37.659Z,16.67
2018-03-25T11:01:04.999Z,16.17
2018-03-25T11:03:31.268Z,15.93
2018-03-25T11:05:58.266Z,17.07
2018-03-25T11:08:24.473Z,16.07
2018-03-25T11:10:50.733Z,16.07
2018-03-25T11:13:16.966Z,17.33
2018-03-25T11:15:43.223Z,16.40
2018-03-25T11:18:10.208Z,16.10
2018-03-25T11:20:36.417Z,17.80
2018-03-25T11:23:02.657Z,20.87
2018-03-25T11:25:28.877Z,16.73
2018-03-25T11:27:55.117Z,26.83
2018-03-25T11:30:21.333Z,17.17
2018-03-25T11:32:47.594Z,17.33
2018-03-25T11:35:13.825Z,18.07
2018-03-25T11:37:40.249Z,18.07
2018-03-25T11:40:06.531Z,23.23
2018-03-25T11:42:33.468Z,16.63
2018-03-25T11:45:00.433Z,17.50
2018-03-25T11:47:26.647Z,21.97
2018-03-25T11:49:53.618Z,18.30
2018-03-25T11:52:20.789Z,18.13
2018-03-25T11:54:47.015Z,17.73
2018-03-25T11:57:13.250Z,17.57
2018-03-25T11:59:39.466Z,19.03
2018-03-25T12:02:05.762Z,19.13
2018-03-25T12:04:31.958Z,18.40
2018-03-25T12:06:58.216Z,18.03
2018-03-25T12:09:25.806Z,18.30
2018-03-25T12:11:52.219Z,18.30
2018-03-25T12:14:18.606Z,16.60
2018-03-25T12:16:44.815Z,17.37
2018-03-25T12:19:12.103Z,16.97
2018-03-25T12:21:39.187Z,16.97
2018-03-25T12:24:05.426Z,17.07
2018-03-25T12:26:31.713Z,17.57
2018-03-25T12:28:58.754Z,18.00
2018-03-25T12:31:25.782Z,17.10
2018-03-25T12:33:52.081Z,17.83
2018-03-25T12:36:18.317Z,16.93
2018-03-25T12:38:44.620Z,19.00
2018-03-25T12:41:10.835Z,17.27
2018-03-25T12:43:37.056Z,16.53
2018-03-25T12:46:03.345Z,17.07
2018-03-25T12:48:29.587Z,16.23
2018-03-25T12:50:55.872Z,16.37
2018-03-25T12:53:22.098Z,17.27
2018-03-25T12:55:48.348Z,21.37
2018-03-25T12:58:14.597Z,15.97
2018-03-25T13:00:40.850Z,17.70
2018-03-25T13:03:07.158Z,17.63
2018-03-25T13:05:34.162Z,18.00
2018-03-25T13:08:00.438Z,17.60
2018-03-25T13:10:26.728Z,17.63
2018-03-25T13:12:52.988Z,17.47
2018-03-25T13:15:19.955Z,19.23
2018-03-25T13:17:46.911Z,18.33
2018-03-25T13:20:13.261Z,18.87
2018-03-25T13:22:40.354Z,19.70
2018-03-25T13:25:06.718Z,19.77
2018-03-25T13:27:33.850Z,18.67
2018-03-25T13:30:00.852Z,20.00
2018-03-25T13:32:27.111Z,20.40
2018-03-25T13:34:53.359Z,21.60
2018-03-25T13:37:20.329Z,21.33
2018-03-25T13:39:46.557Z,20.13
2018-03-25T13:42:12.966Z,19.43
2018-03-25T13:44:39.244Z,20.10
2018-03-25T13:47:05.773Z,19.43
2018-03-25T13:49:32.082Z,19.33
2018-03-25T13:51:58.308Z,20.53
2018-03-25T13:54:24.602Z,19.27
2018-03-25T13:56:50.917Z,19.73
2018-03-25T13:59:17.812Z,19.40
2018-03-25T14:01:44.835Z,19.43
2018-03-25T14:04:11.119Z,20.43
2018-03-25T14:06:38.154Z,22.57
2018-03-25T14:09:04.405Z,23.07
2018-03-25T14:11:30.615Z,21.00
2018-03-25T14:13:56.853Z,21.30
2018-03-25T14:16:23.569Z,21.20
2018-03-25T14:18:50.931Z,20.10
2018-03-25T14:21:17.157Z,20.83
2018-03-25T14:23:44.196Z,19.50
2018-03-25T14:26:10.566Z,20.60
2018-03-25T14:28:36.854Z,21.23
2018-03-25T14:31:03.115Z,20.10
2018-03-25T14:33:29.378Z,19.93
2018-03-25T14:35:55.651Z,20.27
2018-03-25T14:38:22.654Z,19.50
2018-03-25T14:40:49.638Z,20.37
2018-03-25T14:43:15.949Z,19.17
2018-03-25T14:45:42.444Z,19.07
2018-03-25T14:48:09.617Z,20.63
2018-03-25T14:50:35.898Z,19.87
2018-03-25T14:53:02.908Z,21.50
2018-03-25T14:55:29.169Z,21.87
2018-03-25T14:57:55.408Z,21.47
2018-03-25T15:00:21.812Z,21.93
2018-03-25T15:02:48.112Z,23.73
2018-03-25T15:05:15.865Z,21.87
2018-03-25T15:07:42.206Z,22.67
2018-03-25T15:10:08.453Z,23.60
2018-03-25T15:12:35.076Z,22.17
2018-03-25T15:15:01.408Z,22.97
2018-03-25T15:17:27.656Z,23.00
2018-03-25T15:19:53.881Z,24.23
2018-03-25T15:22:20.940Z,23.03
2018-03-25T15:24:47.377Z,23.67
2018-03-25T15:27:14.366Z,25.23
2018-03-25T15:29:40.738Z,24.67
2018-03-25T15:32:06.990Z,24.60
2018-03-25T15:34:34.019Z,26.87
2018-03-25T15:37:00.256Z,27.17
2018-03-25T15:39:26.533Z,26.23
2018-03-25T15:41:53.021Z,27.33
2018-03-25T15:44:19.298Z,27.47
2018-03-25T15:46:45.976Z,25.93
2018-03-25T15:49:12.871Z,26.70
2018-03-25T15:51:39.929Z,26.70
2018-03-25T15:54:06.198Z,27.57
2018-03-25T15:56:32.454Z,26.70
2018-03-25T15:58:59.481Z,26.37
2018-03-25T16:01:25.842Z,26.03
2018-03-25T16:03:52.155Z,25.27
2018-03-25T16:06:18.634Z,24.83
2018-03-25T16:08:44.883Z,24.00
2018-03-25T16:11:11.215Z,22.63
2018-03-25T16:13:37.465Z,22.30
2018-03-25T16:16:03.994Z,22.13
2018-03-25T16:18:31.038Z,22.53
2018-03-25T16:20:58.157Z,23.20
2018-03-25T16:23:25.249Z,22.07
2018-03-25T16:25:52.266Z,22.40
2018-03-25T16:28:18.538Z,22.93
2018-03-25T16:30:44.936Z,21.30
2018-03-25T16:33:11.342Z,22.13
2018-03-25T16:35:37.590Z,21.33
2018-03-25T16:38:04.144Z,21.63
2018-03-25T16:40:30.394Z,21.30
2018-03-25T16:42:56.583Z,21.27
2018-03-25T16:45:22.886Z,19.97
2018-03-25T16:47:49.133Z,18.23
2018-03-25T16:50:15.323Z,18.23
2018-03-25T16:52:42.376Z,18.17
2018-03-25T16:55:08.710Z,19.47
2018-03-25T16:57:35.012Z,19.73
2018-03-25T17:00:01.319Z,18.83
2018-03-25T17:02:27.591Z,20.10
2018-03-25T17:04:53.856Z,20.60
2018-03-25T17:07:20.082Z,20.23
2018-03-25T17:09:46.356Z,20.70
2018-03-25T17:12:12.776Z,21.57
2018-03-25T17:14:39.201Z,21.30
2018-03-25T17:17:06.550Z,21.67
2018-03-25T17:19:33.553Z,21.90
2018-03-25T17:21:59.833Z,21.10
2018-03-25T17:24:26.094Z,21.30
2018-03-25T17:26:53.096Z,21.30
2018-03-25T17:29:19.344Z,21.90
2018-03-25T17:31:45.779Z,21.23
2018-03-25T17:34:12.156Z,21.87
2018-03-25T17:36:38.448Z,21.40
2018-03-25T17:39:05.567Z,22.70
2018-03-25T17:41:31.996Z,23.20
2018-03-25T17:43:58.237Z,22.67
2018-03-25T17:46:24.505Z,23.07
2018-03-25T17:48:50.842Z,23.23
2018-03-25T17:51:17.059Z,22.70
2018-03-25T17:53:43.330Z,22.93
2018-03-25T17:56:09.575Z,23.60
2018-03-25T17:58:35.812Z,24.10
2018-03-25T18:01:02.035Z,24.67
2018-03-25T18:03:28.234Z,24.17
2018-03-25T18:05:54.531Z,23.73
2018-03-25T18:08:20.793Z,24.37
2018-03-25T18:10:47.114Z,24.10
2018-03-25T18:13:14.125Z,22.57
2018-03-25T18:15:40.391Z,23.00
2018-03-25T18:18:06.618Z,23.90
2018-03-25T18:20:32.882Z,23.00
2018-03-25T18:22:59.125Z,23.17
2018-03-25T18:25:26.342Z,22.77
2018-03-25T18:27:52.672Z,23.17
2018-03-25T18:30:18.915Z,22.70
2018-03-25T18:32:46.114Z,23.50
2018-03-25T18:35:12.351Z,22.30
2018-03-25T18:37:38.693Z,23.07
2018-03-25T18:40:04.929Z,22.70
2018-03-25T18:42:31.206Z,23.50
2018-03-25T18:44:58.311Z,22.33
2018-03-25T18:47:24.738Z,22.87
2018-03-25T18:49:51.213Z,23.73
2018-03-25T18:52:17.421Z,23.87
2018-03-25T18:54:43.707Z,23.30
2018-03-25T18:57:09.980Z,22.03
2018-03-25T18:59:36.264Z,23.33
2018-03-25T19:02:05.026Z,23.17
2018-03-25T19:04:31.437Z,22.87
2018-03-25T19:06:57.731Z,21.83
2018-03-25T19:09:23.976Z,22.80
2018-03-25T19:11:50.254Z,22.40
2018-03-25T19:14:16.571Z,22.57
2018-03-25T19:16:43.612Z,21.57
2018-03-25T19:19:10.594Z,22.87
2018-03-25T19:21:36.828Z,22.33
2018-03-25T19:24:03.164Z,20.77
2018-03-25T19:26:30.288Z,20.90
2018-03-25T19:28:56.529Z,22.63
2018-03-25T19:31:22.742Z,21.57
2018-03-25T19:33:48.966Z,20.73
2018-03-25T19:36:15.218Z,21.07
2018-03-25T19:38:41.506Z,20.93
2018-03-25T19:41:08.504Z,21.63
2018-03-25T19:43:34.777Z,21.10
2018-03-25T19:46:01.863Z,21.47
2018-03-25T19:48:28.142Z,20.53
2018-03-25T19:50:54.368Z,21.90
2018-03-25T19:53:20.606Z,21.27
2018-03-25T19:55:46.814Z,21.27
2018-03-25T19:58:13.167Z,21.60
2018-03-25T20:00:40.262Z,21.70
2018-03-25T20:03:06.626Z,23.00
2018-03-25T20:05:32.887Z,24.73
2018-03-25T20:07:59.902Z,25.00
2018-03-25T20:10:26.182Z,24.90
2018-03-25T20:12:52.434Z,24.57
2018-03-25T20:15:18.726Z,25.00
2018-03-25T20:17:44.958Z,25.47
2018-03-25T20:20:13.851Z,25.00
2018-03-25T20:22:40.429Z,26.87
2018-03-25T20:25:06.823Z,26.53
2018-03-25T20:27:33.103Z,27.00
2018-03-25T20:29:59.357Z,26.67
2018-03-25T20:32:26.335Z,28.57
2018-03-25T20:34:52.563Z,27.20
2018-03-25T20:37:22.296Z,27.87
2018-03-25T20:39:48.580Z,26.83
2018-03-25T20:42:14.838Z,28.80
2018-03-25T20:44:42.490Z,27.70
2018-03-25T20:47:08.962Z,27.73
2018-03-25T20:49:35.227Z,27.73
2018-03-25T20:52:02.207Z,27.73
2018-03-25T20:54:29.308Z,28.30
2018-03-25T20:56:55.638Z,27.20
2018-03-25T20:59:22.661Z,27.23
2018-03-25T21:01:48.972Z,27.10
2018-03-25T21:04:16.215Z,27.43
2018-03-25T21:06:43.233Z,29.13
2018-03-25T21:09:09.533Z,28.57
2018-03-25T21:11:35.872Z,27.60
2018-03-25T21:14:02.104Z,27.67
2018-03-25T21:16:29.122Z,28.20
2018-03-25T21:18:55.344Z,27.50
2018-03-25T21:21:21.729Z,27.87
2018-03-25T21:23:48.119Z,27.47
2018-03-25T21:26:14.566Z,28.33
2018-03-25T21:28:40.883Z,27.87
2018-03-25T21:31:07.105Z,29.00
2018-03-25T21:33:33.368Z,28.90
2018-03-25T21:35:59.847Z,27.63
2018-03-25T21:38:26.177Z,26.43
2018-03-25T21:40:52.676Z,27.57
2018-03-25T21:43:18.946Z,27.50
2018-03-25T21:45:45.178Z,28.60
2018-03-25T21:48:11.466Z,27.07
2018-03-25T21:50:37.730Z,28.53
2018-03-25T21:53:03.996Z,27.20
2018-03-25T21:55:30.266Z,29.23
2018-03-25T21:57:56.627Z,28.33
2018-03-25T22:00:23.031Z,28.40
2018-03-25T22:02:49.273Z,27.03
2018-03-25T22:05:15.530Z,27.53
2018-03-25T22:07:44.950Z,27.50
2018-03-25T22:10:11.397Z,29.57
2018-03-25T22:12:37.695Z,27.33
2018-03-25T22:15:04.010Z,28.13
2018-03-25T22:17:30.336Z,28.30
2018-03-25T22:19:57.432Z,28.27
2018-03-25T22:22:23.775Z,28.07
2018-03-25T22:24:50.020Z,26.53
2018-03-25T22:27:16.267Z,28.27
2018-03-25T22:29:43.292Z,30.00
2018-03-25T22:32:09.600Z,29.00
2018-03-25T22:34:35.793Z,29.17
2018-03-25T22:37:02.272Z,28.83
2018-03-25T22:39:28.514Z,29.43
2018-03-25T22:41:54.741Z,27.80
2018-03-25T22:44:21.776Z,29.60
2018-03-25T22:46:48.010Z,29.37
2018-03-25T22:49:14.562Z,30.80
2018-03-25T22:51:42.211Z,30.77
2018-03-25T22:54:19.638Z,29.70
2018-03-25T22:56:50.614Z,31.47
2018-03-25T22:59:22.264Z,29.67
2018-03-25T23:01:55.542Z,30.43
2018-03-25T23:04:25.504Z,30.70
2018-03-25T23:06:56.464Z,30.47
2018-03-25T23:09:23.728Z,30.77
2018-03-25T23:11:49.951Z,31.60
2018-03-25T23:14:16.982Z,30.67
2018-03-25T23:16:43.291Z,32.07
2018-03-25T23:19:09.562Z,32.47
2018-03-25T23:21:35.791Z,31.37
2018-03-25T23:24:02.822Z,30.93
2018-03-25T23:26:29.878Z,36.23
2018-03-25T23:28:56.133Z,35.00
2018-03-25T23:31:22.407Z,39.20
2018-03-25T23:33:48.623Z,41.07
2018-03-25T23:36:15.662Z,43.43
2018-03-25T23:38:42.135Z,43.83
2018-03-25T23:41:08.352Z,41.67
2018-03-25T23:43:34.597Z,43.50
2018-03-25T23:46:00.801Z,42.37
2018-03-25T23:48:27.022Z,42.83
2018-03-25T23:50:53.268Z,43.47
2018-03-25T23:53:19.518Z,47.20
2018-03-25T23:55:45.843Z,46.60
2018-03-25T23:58:12.911Z,47.63
